7NC weather

Donald's Air Park Inc. Airport
Plymouth, North Carolina, United States

Public forecast

Using degrees Fahrenheit for public forecast. Weather courtesy of forecast.io.

METAR (pilot weather report)

Report is more than 6 hours old.

Closest report is Northeastern Regional Airport, 18.4 nm (34.0 km) NNE. Retrieved 2019/04/22 17:20 UTC (10 hours ago):

KEDE 221720Z AUTO 32009G14KT 10SM SCT048 SCT055 22/12 A3012 RMK AO2 T02150116

TAF (pilot weather forecast)

Forecast is more than 12 hours old.

Closest forecast is Pitt Greenville Airport, 35.4 nm (65.5 km) W. Retrieved 2019/04/22 00:30 UTC (1 day ago):

TAF KPGV 222328Z 2300/2324 VRB03KT P6SM SKC FM231700 24005KT P6SM SKC FM232200 21005KT P6SM SKC AMD LTD TO CLD VIS AND WIND